createdAt,value
2018-10-18T00:00:22.478Z,44.18
2018-10-18T00:00:55.039Z,47.83
2018-10-18T00:01:27.683Z,40.92
2018-10-18T00:02:00.251Z,39.60
2018-10-18T00:02:32.848Z,41.30
2018-10-18T00:03:05.454Z,48.13
2018-10-18T00:03:37.983Z,39.33
2018-10-18T00:04:10.514Z,40.95
2018-10-18T00:04:43.071Z,42.78
2018-10-18T00:05:16.419Z,44.77
2018-10-18T00:05:49.054Z,47.15
2018-10-18T00:06:21.637Z,40.03
2018-10-18T00:06:54.210Z,48.00
2018-10-18T00:07:26.790Z,39.80
2018-10-18T00:07:59.560Z,51.60
2018-10-18T00:08:32.119Z,41.95
2018-10-18T00:09:07.450Z,42.62
2018-10-18T00:09:40.018Z,39.98
2018-10-18T00:10:12.596Z,48.33
2018-10-18T00:10:45.441Z,43.05
2018-10-18T00:11:18.064Z,49.95
2018-10-18T00:11:50.734Z,56.05
2018-10-18T00:12:23.336Z,45.58
2018-10-18T00:12:55.892Z,42.13
2018-10-18T00:13:28.447Z,39.13
2018-10-18T00:14:01.029Z,42.33
2018-10-18T00:14:33.546Z,46.00
2018-10-18T00:15:06.869Z,40.63
2018-10-18T00:15:39.425Z,42.38
2018-10-18T00:16:12.059Z,44.75
2018-10-18T00:16:44.648Z,40.10
2018-10-18T00:17:22.994Z,42.78
2018-10-18T00:17:55.577Z,42.00
2018-10-18T00:18:28.150Z,41.65
2018-10-18T00:19:00.744Z,46.23
2018-10-18T00:19:33.347Z,43.45
2018-10-18T00:20:06.039Z,42.75
2018-10-18T00:20:38.583Z,47.23
2018-10-18T00:21:11.168Z,42.33
2018-10-18T00:21:43.743Z,43.17
2018-10-18T00:22:16.345Z,44.70
2018-10-18T00:22:48.890Z,40.48
2018-10-18T00:23:21.442Z,40.75
2018-10-18T00:23:54.025Z,45.23
2018-10-18T00:24:26.626Z,51.55
2018-10-18T00:24:59.189Z,41.35
2018-10-18T00:25:31.746Z,43.25
2018-10-18T00:26:04.699Z,49.58
2018-10-18T00:26:37.301Z,42.13
2018-10-18T00:27:09.882Z,47.67
2018-10-18T00:27:42.517Z,42.48
2018-10-18T00:28:15.102Z,46.80
2018-10-18T00:28:47.677Z,45.50
2018-10-18T00:29:20.260Z,42.65
2018-10-18T00:29:52.868Z,46.28
2018-10-18T00:30:25.455Z,43.58
2018-10-18T00:30:58.022Z,49.25
2018-10-18T00:31:30.566Z,46.92
2018-10-18T00:32:03.416Z,47.30
2018-10-18T00:32:35.987Z,40.25
2018-10-18T00:33:08.578Z,41.88
2018-10-18T00:33:41.126Z,45.50
2018-10-18T00:34:13.666Z,46.45
2018-10-18T00:34:46.238Z,43.92
2018-10-18T00:35:18.787Z,44.25
2018-10-18T00:35:51.390Z,49.13
2018-10-18T00:36:23.994Z,43.80
2018-10-18T00:36:56.570Z,47.23
2018-10-18T00:37:29.155Z,46.80
2018-10-18T00:38:01.727Z,40.63
2018-10-18T00:38:34.365Z,45.33
2018-10-18T00:39:09.329Z,41.58
2018-10-18T00:39:41.924Z,42.38
2018-10-18T00:40:14.527Z,40.17
2018-10-18T00:40:47.090Z,44.85
2018-10-18T00:41:19.642Z,52.62
2018-10-18T00:41:52.224Z,42.38
2018-10-18T00:42:24.798Z,42.43
2018-10-18T00:42:57.401Z,39.48
2018-10-18T00:43:29.944Z,41.70
2018-10-18T00:44:02.635Z,39.18
2018-10-18T00:44:35.189Z,47.20
2018-10-18T00:45:08.591Z,44.63
2018-10-18T00:45:41.159Z,47.10
2018-10-18T00:46:13.700Z,47.40
2018-10-18T00:46:46.281Z,41.13
2018-10-18T00:47:18.880Z,44.00
2018-10-18T00:47:51.561Z,51.50
2018-10-18T00:48:24.148Z,40.00
2018-10-18T00:48:56.695Z,45.67
2018-10-18T00:49:29.266Z,47.17
2018-10-18T00:50:01.944Z,36.85
2018-10-18T00:50:34.446Z,41.05
2018-10-18T00:51:07.035Z,39.83
2018-10-18T00:51:39.605Z,40.88
2018-10-18T00:52:12.155Z,39.63
2018-10-18T00:52:44.708Z,44.23
2018-10-18T00:53:17.287Z,43.87
2018-10-18T00:53:49.838Z,42.35
2018-10-18T00:54:22.408Z,40.90
2018-10-18T00:54:54.966Z,40.63
2018-10-18T00:55:27.552Z,38.08
2018-10-18T00:56:00.143Z,49.00
2018-10-18T00:56:32.683Z,42.55
2018-10-18T00:57:05.322Z,50.65
2018-10-18T00:57:38.293Z,39.05
2018-10-18T00:58:10.826Z,44.13
2018-10-18T00:58:43.371Z,36.00
2018-10-18T00:59:15.926Z,38.85
2018-10-18T00:59:48.514Z,43.63
2018-10-18T01:00:21.132Z,45.10
2018-10-18T01:00:53.682Z,39.35
2018-10-18T01:01:26.226Z,42.00
2018-10-18T01:01:58.808Z,40.15
2018-10-18T01:02:31.375Z,41.35
2018-10-18T01:03:04.204Z,38.60
2018-10-18T01:03:36.782Z,44.45
2018-10-18T01:04:09.334Z,37.78
2018-10-18T01:04:41.910Z,46.85
2018-10-18T01:05:14.498Z,43.05
2018-10-18T01:05:47.178Z,44.18
2018-10-18T01:06:19.783Z,42.08
2018-10-18T01:06:52.332Z,42.30
2018-10-18T01:07:24.895Z,39.92
2018-10-18T01:07:57.486Z,46.28
2018-10-18T01:08:30.050Z,49.05
2018-10-18T01:09:02.914Z,45.03
2018-10-18T01:09:35.504Z,45.33
2018-10-18T01:10:08.119Z,45.10
2018-10-18T01:10:40.739Z,46.18
2018-10-18T01:11:13.359Z,57.53
2018-10-18T01:11:45.931Z,47.30
2018-10-18T01:12:18.593Z,46.05
2018-10-18T01:12:51.102Z,54.55
2018-10-18T01:13:23.690Z,49.33
2018-10-18T01:13:56.322Z,54.90
2018-10-18T01:14:28.930Z,51.05
2018-10-18T01:15:01.500Z,51.50
2018-10-18T01:15:34.079Z,47.27
2018-10-18T01:16:06.676Z,46.18
2018-10-18T01:16:39.284Z,53.78
2018-10-18T01:17:11.843Z,50.60
2018-10-18T01:17:44.442Z,51.48
2018-10-18T01:18:17.134Z,50.48
2018-10-18T01:18:49.625Z,56.00
2018-10-18T01:19:22.216Z,57.43
2018-10-18T01:19:54.814Z,40.40
2018-10-18T01:20:27.353Z,53.92
2018-10-18T01:20:59.902Z,51.68
2018-10-18T01:21:32.455Z,49.95
2018-10-18T01:22:06.074Z,54.63
2018-10-18T01:23:41.904Z,55.92
2018-10-18T01:24:14.462Z,58.40
2018-10-18T01:24:47.022Z,48.80
2018-10-18T01:25:19.570Z,57.45
2018-10-18T01:25:52.179Z,53.00
2018-10-18T01:26:24.778Z,61.53
2018-10-18T01:26:57.372Z,60.33
2018-10-18T01:27:29.984Z,63.48
2018-10-18T01:28:02.544Z,59.25
2018-10-18T01:28:37.259Z,57.90
2018-10-18T01:29:11.677Z,54.42
2018-10-18T01:29:46.361Z,50.73
2018-10-18T01:30:20.214Z,53.35
2018-10-18T01:30:55.055Z,52.78
2018-10-18T01:31:29.117Z,53.90
2018-10-18T01:32:01.711Z,55.67
2018-10-18T01:32:36.622Z,51.05
2018-10-18T01:33:09.182Z,45.58
2018-10-18T01:33:41.768Z,55.38
2018-10-18T01:34:14.563Z,43.33
2018-10-18T01:34:47.136Z,50.75
2018-10-18T01:35:19.712Z,43.10
2018-10-18T01:35:52.288Z,55.17
2018-10-18T01:36:25.110Z,54.85
2018-10-18T01:36:57.687Z,55.63
2018-10-18T01:37:30.235Z,50.30
2018-10-18T01:38:04.170Z,46.65
2018-10-18T01:38:36.739Z,51.58
2018-10-18T01:39:09.613Z,49.85
2018-10-18T01:39:42.219Z,52.35
2018-10-18T01:40:14.763Z,52.70
2018-10-18T01:40:47.343Z,43.10
2018-10-18T01:41:19.925Z,46.40
2018-10-18T01:41:52.481Z,43.63
2018-10-18T01:42:25.034Z,49.83
2018-10-18T01:42:57.644Z,48.50
2018-10-18T01:43:30.262Z,44.90
2018-10-18T01:44:02.896Z,50.80
2018-10-18T01:44:35.524Z,49.60
2018-10-18T01:45:08.124Z,48.17
2018-10-18T01:45:40.662Z,50.58
2018-10-18T01:46:13.247Z,49.98
2018-10-18T01:46:45.812Z,49.75
2018-10-18T01:47:18.371Z,46.35
2018-10-18T01:47:50.922Z,47.43
2018-10-18T01:48:23.466Z,50.25
2018-10-18T01:48:56.128Z,49.33
2018-10-18T01:49:28.694Z,50.08
2018-10-18T01:50:01.328Z,49.05
2018-10-18T01:50:33.931Z,47.13
2018-10-18T01:51:06.499Z,52.48
2018-10-18T01:52:42.402Z,50.05
2018-10-18T01:53:14.981Z,48.65
2018-10-18T01:53:47.536Z,53.90
2018-10-18T01:54:20.126Z,46.20
2018-10-18T01:54:52.654Z,48.92
2018-10-18T01:55:25.202Z,45.12
2018-10-18T01:55:57.856Z,54.25
2018-10-18T01:56:30.426Z,47.30
2018-10-18T01:57:03.007Z,44.18
2018-10-18T01:57:35.590Z,49.23
2018-10-18T01:58:08.132Z,47.73
2018-10-18T01:58:40.701Z,42.13
2018-10-18T01:59:13.303Z,45.10
2018-10-18T01:59:45.866Z,46.73
2018-10-18T02:00:18.503Z,51.05
2018-10-18T02:00:51.003Z,42.65
2018-10-18T02:01:23.574Z,49.65
2018-10-18T02:01:56.133Z,49.00
2018-10-18T02:02:28.718Z,50.75
2018-10-18T02:03:01.317Z,50.67
2018-10-18T02:03:33.877Z,53.13
2018-10-18T02:04:06.466Z,50.20
2018-10-18T02:04:39.029Z,47.00
2018-10-18T02:05:11.723Z,53.38
2018-10-18T02:05:44.307Z,51.15
2018-10-18T02:06:16.936Z,55.83
2018-10-18T02:06:49.518Z,48.78
2018-10-18T02:07:22.058Z,52.75
2018-10-18T02:07:54.688Z,46.45
2018-10-18T02:08:27.257Z,50.98
2018-10-18T02:08:59.837Z,44.98
2018-10-18T02:09:32.408Z,48.23
2018-10-18T02:10:05.957Z,62.67
2018-10-18T02:10:38.535Z,48.28
2018-10-18T02:11:11.083Z,46.30
2018-10-18T02:11:43.667Z,51.08
2018-10-18T02:12:16.316Z,48.95
2018-10-18T02:12:48.874Z,54.27
2018-10-18T02:13:21.426Z,56.35
2018-10-18T02:13:54.014Z,54.08
2018-10-18T02:14:26.919Z,55.48
2018-10-18T02:14:59.528Z,48.55
2018-10-18T02:15:32.108Z,53.98
2018-10-18T02:16:05.010Z,51.48
2018-10-18T02:16:37.884Z,51.73
2018-10-18T02:17:10.434Z,46.40
2018-10-18T02:17:42.995Z,43.13
2018-10-18T02:18:15.618Z,47.15
2018-10-18T02:18:48.163Z,55.12
2018-10-18T02:19:20.847Z,48.75
2018-10-18T02:19:53.364Z,49.23
2018-10-18T02:20:25.957Z,45.00
2018-10-18T02:20:58.572Z,52.62
2018-10-18T02:21:31.174Z,45.65
2018-10-18T02:22:03.802Z,49.25
2018-10-18T02:22:36.347Z,51.33
2018-10-18T02:23:08.904Z,72.42
2018-10-18T02:23:41.486Z,56.10
2018-10-18T02:24:14.117Z,58.90
2018-10-18T02:24:46.622Z,55.73
2018-10-18T02:25:19.233Z,57.43
2018-10-18T02:25:51.819Z,56.35
2018-10-18T02:26:24.434Z,54.45
2018-10-18T02:26:57.066Z,61.75
2018-10-18T02:27:29.652Z,54.00
2018-10-18T02:28:02.263Z,55.40
2018-10-18T02:28:34.810Z,59.03
2018-10-18T02:29:07.404Z,59.20
2018-10-18T02:29:39.965Z,69.50
2018-10-18T02:30:12.645Z,65.55
2018-10-18T02:30:45.114Z,74.90
2018-10-18T02:31:17.675Z,71.87
2018-10-18T02:31:50.224Z,70.47
2018-10-18T02:32:22.789Z,70.25
2018-10-18T02:32:55.332Z,67.60
2018-10-18T02:33:27.887Z,65.50
2018-10-18T02:34:00.442Z,76.28
2018-10-18T02:34:33.016Z,76.92
2018-10-18T02:35:05.741Z,80.50
2018-10-18T02:35:38.371Z,72.67
2018-10-18T02:36:11.022Z,67.92
2018-10-18T02:36:43.535Z,83.33
2018-10-18T02:37:16.090Z,83.15
2018-10-18T02:37:48.671Z,72.85
2018-10-18T02:38:21.272Z,75.15
2018-10-18T02:38:53.852Z,91.08
2018-10-18T02:39:26.437Z,70.30
2018-10-18T02:39:58.993Z,82.42
2018-10-18T02:40:31.570Z,80.00
2018-10-18T02:41:04.426Z,66.30
2018-10-18T02:41:36.998Z,71.12
2018-10-18T02:42:09.640Z,75.05
2018-10-18T02:42:42.119Z,73.90
2018-10-18T02:43:14.718Z,95.65
2018-10-18T02:43:47.305Z,89.97
2018-10-18T02:44:19.850Z,88.07
2018-10-18T02:44:52.438Z,95.40
2018-10-18T02:45:25.036Z,90.67
2018-10-18T02:45:57.591Z,90.85
2018-10-18T02:46:30.171Z,80.42
2018-10-18T02:47:02.791Z,82.15
2018-10-18T02:47:35.385Z,81.32
2018-10-18T02:48:08.047Z,91.10
2018-10-18T02:48:40.608Z,85.65
2018-10-18T02:49:13.163Z,80.45
2018-10-18T02:49:45.717Z,86.70
2018-10-18T02:50:18.267Z,77.80
2018-10-18T02:50:50.840Z,87.65
2018-10-18T02:51:23.448Z,77.05
2018-10-18T02:51:55.998Z,73.95
2018-10-18T02:52:28.602Z,93.07
2018-10-18T02:53:01.210Z,86.22
2018-10-18T02:53:33.783Z,85.30
2018-10-18T02:54:06.417Z,78.40
2018-10-18T02:54:38.934Z,72.15
2018-10-18T02:55:11.520Z,77.25
2018-10-18T02:55:44.086Z,85.75
2018-10-18T02:56:16.645Z,83.95
2018-10-18T02:56:49.226Z,83.65
2018-10-18T02:57:21.770Z,90.87
2018-10-18T02:57:54.327Z,90.32
2018-10-18T02:58:26.900Z,87.78
2018-10-18T02:58:59.466Z,94.92
2018-10-18T02:59:32.063Z,85.55
2018-10-18T03:00:05.589Z,94.55
2018-10-18T03:00:38.176Z,84.70
2018-10-18T03:01:10.765Z,83.20
2018-10-18T03:01:43.352Z,83.97
2018-10-18T03:02:15.926Z,86.95
2018-10-18T03:02:48.524Z,86.75
2018-10-18T03:03:21.092Z,84.87
2018-10-18T03:03:53.670Z,85.62
2018-10-18T03:04:26.256Z,81.67
2018-10-18T03:04:58.846Z,84.52
2018-10-18T03:05:31.458Z,77.10
2018-10-18T03:06:04.137Z,91.53
2018-10-18T03:06:36.702Z,89.15
2018-10-18T03:07:09.271Z,103.02
2018-10-18T03:07:41.831Z,112.62
2018-10-18T03:08:14.387Z,93.72
2018-10-18T03:08:46.976Z,97.88
2018-10-18T03:09:19.568Z,82.08
2018-10-18T03:09:52.119Z,90.45
2018-10-18T03:10:24.724Z,97.22
2018-10-18T03:10:57.306Z,100.62
2018-10-18T03:11:29.891Z,85.90
2018-10-18T03:12:02.538Z,108.67
2018-10-18T03:12:35.331Z,83.07
2018-10-18T03:13:07.870Z,97.72
2018-10-18T03:13:40.446Z,78.65
2018-10-18T03:14:12.982Z,87.95
2018-10-18T03:14:45.580Z,87.57
2018-10-18T03:15:18.172Z,84.65
2018-10-18T03:15:50.763Z,89.17
2018-10-18T03:16:23.351Z,82.42
2018-10-18T03:16:55.923Z,84.45
2018-10-18T03:17:28.508Z,93.25
2018-10-18T03:18:01.094Z,83.05
2018-10-18T03:18:33.694Z,93.35
2018-10-18T03:19:06.291Z,97.95
2018-10-18T03:19:38.919Z,113.22
2018-10-18T03:20:11.463Z,109.10
2018-10-18T03:20:44.052Z,117.13
2018-10-18T03:21:16.629Z,117.00
2018-10-18T03:21:49.270Z,109.15
2018-10-18T03:22:21.802Z,101.35
2018-10-18T03:22:54.351Z,93.30
2018-10-18T03:23:26.936Z,130.72
2018-10-18T03:23:59.564Z,101.20
2018-10-18T03:24:32.115Z,106.10
2018-10-18T03:25:05.632Z,95.30
2018-10-18T03:25:38.222Z,85.65
2018-10-18T03:26:10.790Z,83.27
2018-10-18T03:26:43.380Z,88.70
2018-10-18T03:27:15.935Z,93.20
2018-10-18T03:27:48.532Z,89.17
2018-10-18T03:28:21.122Z,96.12
2018-10-18T03:28:53.862Z,91.40
2018-10-18T03:29:26.511Z,95.30
2018-10-18T03:29:59.144Z,82.92
2018-10-18T03:30:31.730Z,82.47
2018-10-18T03:31:04.349Z,78.95
2018-10-18T03:31:36.955Z,84.15
2018-10-18T03:32:09.520Z,75.15
2018-10-18T03:32:42.128Z,98.85
2018-10-18T03:33:14.686Z,113.77
2018-10-18T03:33:47.268Z,95.07
2018-10-18T03:34:19.842Z,84.07
2018-10-18T03:34:52.601Z,78.55
2018-10-18T03:35:25.151Z,84.13
2018-10-18T03:35:57.821Z,93.82
2018-10-18T03:36:30.450Z,93.37
2018-10-18T03:37:03.084Z,116.05
2018-10-18T03:37:35.717Z,86.67
2018-10-18T03:38:08.314Z,88.30
2018-10-18T03:38:40.928Z,114.95
2018-10-18T03:39:13.531Z,90.90
2018-10-18T03:39:46.127Z,94.05
2018-10-18T03:40:18.736Z,76.47
2018-10-18T03:40:51.330Z,81.75
2018-10-18T03:41:23.970Z,95.77
2018-10-18T03:41:56.582Z,85.45
2018-10-18T03:42:29.170Z,88.22
2018-10-18T03:43:01.804Z,85.15
2018-10-18T03:43:34.410Z,95.03
2018-10-18T03:44:07.022Z,79.35
2018-10-18T03:44:39.634Z,78.10
2018-10-18T03:45:12.223Z,79.35
2018-10-18T03:45:44.824Z,90.45
2018-10-18T03:46:17.425Z,88.50
2018-10-18T03:46:50.092Z,82.67
2018-10-18T03:47:22.691Z,83.00
2018-10-18T03:47:55.325Z,99.55
2018-10-18T03:48:27.899Z,76.55
2018-10-18T03:49:00.658Z,86.87
2018-10-18T03:49:33.245Z,84.72
2018-10-18T03:50:05.873Z,88.40
2018-10-18T03:50:38.447Z,97.90
2018-10-18T03:51:11.052Z,75.40
2018-10-18T03:51:43.642Z,96.87
2018-10-18T03:52:16.252Z,93.50
2018-10-18T03:52:48.850Z,90.25
2018-10-18T03:53:21.426Z,81.78
2018-10-18T03:53:54.079Z,102.87
2018-10-18T03:54:26.682Z,91.75
2018-10-18T03:54:59.279Z,77.10
2018-10-18T03:55:31.906Z,85.72
2018-10-18T03:56:04.787Z,100.38
2018-10-18T03:56:37.379Z,100.85
2018-10-18T03:57:09.999Z,79.20
2018-10-18T03:57:42.644Z,77.22
2018-10-18T03:58:15.207Z,77.15
2018-10-18T03:58:47.763Z,78.52
2018-10-18T03:59:20.415Z,78.30
2018-10-18T03:59:53.070Z,76.33
2018-10-18T04:00:25.636Z,75.05
2018-10-18T04:00:58.211Z,88.27
2018-10-18T04:01:30.827Z,67.22
2018-10-18T04:02:03.459Z,73.57
2018-10-18T04:02:36.134Z,78.10
2018-10-18T04:03:08.726Z,73.37
2018-10-18T04:03:41.289Z,76.92
2018-10-18T04:04:13.907Z,71.62
2018-10-18T04:04:46.527Z,77.40
2018-10-18T04:05:19.163Z,73.92
2018-10-18T04:05:51.732Z,99.10
2018-10-18T04:06:24.352Z,90.97
2018-10-18T04:06:56.939Z,80.95
2018-10-18T04:07:29.507Z,102.53
2018-10-18T04:08:02.152Z,78.00
2018-10-18T04:08:34.730Z,76.85
2018-10-18T04:09:08.882Z,76.60
2018-10-18T04:09:41.459Z,81.63
2018-10-18T04:10:14.092Z,72.72
2018-10-18T04:10:46.683Z,70.65
2018-10-18T04:11:19.287Z,75.05
2018-10-18T04:11:51.875Z,76.75
2018-10-18T04:12:24.480Z,78.65
2018-10-18T04:12:57.174Z,92.88
2018-10-18T04:13:29.696Z,86.65
2018-10-18T04:14:02.307Z,68.20
2018-10-18T04:14:34.899Z,69.53
2018-10-18T04:15:07.535Z,78.65
2018-10-18T04:15:40.179Z,77.20
2018-10-18T04:16:12.848Z,74.22
2018-10-18T04:16:45.407Z,68.50
2018-10-18T04:17:18.075Z,75.17
2018-10-18T04:17:50.729Z,87.95
2018-10-18T04:18:23.358Z,66.40
2018-10-18T04:18:55.913Z,72.90
2018-10-18T04:19:28.528Z,71.65
2018-10-18T04:20:01.126Z,62.70
2018-10-18T04:20:33.710Z,71.97
2018-10-18T04:21:06.760Z,74.67
2018-10-18T04:21:39.339Z,67.50
2018-10-18T04:22:11.983Z,71.75
2018-10-18T04:22:44.604Z,62.40
2018-10-18T04:23:24.548Z,70.03
2018-10-18T04:23:57.252Z,61.40
2018-10-18T04:24:29.819Z,67.95
2018-10-18T04:25:02.788Z,60.83
2018-10-18T04:25:35.421Z,70.32
2018-10-18T04:26:08.036Z,60.38
2018-10-18T04:26:40.639Z,61.63
2018-10-18T04:27:13.249Z,66.07
2018-10-18T04:27:45.823Z,60.10
2018-10-18T04:28:18.454Z,59.75
2018-10-18T04:28:51.107Z,83.62
2018-10-18T04:29:23.776Z,73.17
2018-10-18T04:29:56.483Z,75.80
2018-10-18T04:30:29.078Z,77.50
2018-10-18T04:31:02.810Z,66.45
2018-10-18T04:31:35.469Z,74.82
2018-10-18T04:32:08.060Z,90.67
2018-10-18T04:32:40.643Z,79.72
2018-10-18T04:33:13.231Z,93.62
2018-10-18T04:33:45.827Z,70.00
2018-10-18T04:34:18.411Z,69.65
2018-10-18T04:34:50.988Z,73.65
2018-10-18T04:35:23.595Z,66.70
2018-10-18T04:35:56.298Z,71.45
2018-10-18T04:36:28.815Z,64.72
2018-10-18T04:37:01.446Z,76.60
2018-10-18T04:37:34.164Z,70.52
2018-10-18T04:38:06.675Z,73.37
2018-10-18T04:38:39.296Z,65.03
2018-10-18T04:39:12.892Z,69.92
2018-10-18T04:39:45.523Z,68.20
2018-10-18T04:40:18.160Z,68.62
2018-10-18T04:40:50.776Z,73.22
2018-10-18T04:41:23.379Z,78.55
2018-10-18T04:41:55.985Z,69.77
2018-10-18T04:42:28.609Z,74.20
2018-10-18T04:43:01.211Z,67.42
2018-10-18T04:43:33.815Z,66.72
2018-10-18T04:44:06.457Z,71.50
2018-10-18T04:44:39.036Z,70.10
2018-10-18T04:45:11.615Z,72.60
2018-10-18T04:45:44.232Z,65.67
2018-10-18T04:46:16.807Z,73.17
2018-10-18T04:46:49.417Z,69.10
2018-10-18T04:47:22.071Z,63.35
2018-10-18T04:47:54.803Z,68.67
2018-10-18T04:48:27.427Z,59.18
2018-10-18T04:48:59.966Z,66.42
2018-10-18T04:49:32.548Z,65.40
2018-10-18T04:50:06.177Z,64.58
2018-10-18T04:50:38.783Z,62.93
2018-10-18T04:51:11.400Z,70.97
2018-10-18T04:51:43.990Z,60.43
2018-10-18T04:52:16.571Z,59.25
2018-10-18T04:52:49.166Z,61.58
2018-10-18T04:53:21.767Z,68.00
2018-10-18T04:53:54.344Z,70.25
2018-10-18T04:54:26.930Z,72.82
2018-10-18T04:54:59.541Z,64.22
2018-10-18T04:55:32.237Z,77.45
2018-10-18T04:56:04.928Z,60.12
2018-10-18T04:56:37.518Z,70.83
2018-10-18T04:57:10.103Z,74.65
2018-10-18T04:57:42.716Z,64.37
2018-10-18T04:58:15.329Z,66.42
2018-10-18T04:58:47.983Z,73.12
2018-10-18T04:59:20.558Z,69.10
2018-10-18T04:59:53.164Z,75.72
2018-10-18T05:00:25.811Z,68.33
2018-10-18T05:00:58.427Z,74.05
2018-10-18T05:01:31.017Z,65.52
2018-10-18T05:02:04.123Z,63.15
2018-10-18T05:02:36.749Z,68.90
2018-10-18T05:03:09.319Z,61.98
2018-10-18T05:03:41.915Z,61.45
2018-10-18T05:04:14.510Z,59.53
2018-10-18T05:04:58.485Z,65.30
2018-10-18T05:05:42.426Z,62.70
2018-10-18T05:06:15.034Z,64.37
2018-10-18T05:06:47.667Z,62.60
2018-10-18T05:07:20.320Z,63.87
2018-10-18T05:07:52.838Z,62.67
2018-10-18T05:08:26.289Z,64.92
2018-10-18T05:08:58.871Z,60.33
2018-10-18T05:09:31.501Z,61.58
2018-10-18T05:10:04.631Z,68.57
2018-10-18T05:10:37.208Z,66.87
2018-10-18T05:11:09.825Z,77.17
2018-10-18T05:11:42.402Z,70.12
2018-10-18T05:12:14.968Z,75.75
2018-10-18T05:12:47.709Z,81.35
2018-10-18T05:13:20.301Z,72.30
2018-10-18T05:13:52.832Z,82.30
2018-10-18T05:14:25.430Z,81.37
2018-10-18T05:14:58.042Z,80.50
2018-10-18T05:15:30.634Z,74.95
2018-10-18T05:16:03.283Z,70.17
2018-10-18T05:16:35.855Z,70.80
2018-10-18T05:17:08.427Z,75.52
2018-10-18T05:17:41.077Z,67.75
2018-10-18T05:18:13.727Z,76.97
2018-10-18T05:18:48.731Z,74.15
2018-10-18T05:19:24.174Z,75.65
2018-10-18T05:19:59.642Z,86.20
2018-10-18T05:20:35.858Z,72.53
2018-10-18T05:21:11.490Z,66.17
2018-10-18T05:21:46.602Z,73.37
2018-10-18T05:22:22.234Z,71.65
2018-10-18T05:22:56.679Z,71.67
2018-10-18T05:23:31.162Z,67.27
2018-10-18T05:24:04.191Z,70.42
2018-10-18T05:24:36.768Z,70.17
2018-10-18T05:25:09.432Z,63.55
2018-10-18T05:25:42.314Z,69.42
2018-10-18T05:26:14.831Z,65.28
2018-10-18T05:26:47.430Z,62.83
2018-10-18T05:27:20.049Z,62.58
2018-10-18T05:27:52.655Z,64.37
2018-10-18T05:28:25.348Z,60.17
2018-10-18T05:28:57.918Z,61.08
2018-10-18T05:29:30.508Z,59.38
2018-10-18T05:30:03.175Z,56.85
2018-10-18T05:30:35.794Z,61.80
2018-10-18T05:31:08.455Z,65.80
2018-10-18T05:31:41.085Z,61.28
2018-10-18T05:32:13.610Z,60.95
2018-10-18T05:32:46.215Z,60.45
2018-10-18T05:33:18.827Z,61.35
2018-10-18T05:33:51.452Z,62.40
2018-10-18T05:34:24.052Z,63.80
2018-10-18T05:34:56.639Z,66.75
2018-10-18T05:35:30.856Z,60.75
2018-10-18T05:36:03.604Z,63.83
2018-10-18T05:36:36.194Z,62.05
2018-10-18T05:37:08.811Z,73.85
2018-10-18T05:37:41.387Z,68.80
2018-10-18T05:38:19.892Z,63.15
2018-10-18T05:38:52.458Z,80.40
2018-10-18T05:39:25.081Z,78.02
2018-10-18T05:39:57.679Z,59.00
2018-10-18T05:40:30.286Z,59.33
2018-10-18T05:41:02.907Z,69.95
2018-10-18T05:41:35.445Z,70.32
2018-10-18T05:42:07.995Z,69.10
2018-10-18T05:42:40.561Z,65.83
2018-10-18T05:43:13.187Z,61.58
2018-10-18T05:43:45.726Z,80.07
2018-10-18T05:44:18.255Z,87.67
2018-10-18T05:44:50.920Z,67.17
2018-10-18T05:45:23.533Z,81.30
2018-10-18T05:45:56.122Z,68.50
2018-10-18T05:46:28.721Z,103.15
2018-10-18T05:47:01.394Z,73.95
2018-10-18T05:47:33.900Z,78.57
2018-10-18T05:48:06.475Z,68.25
2018-10-18T05:48:39.102Z,65.12
2018-10-18T05:49:11.718Z,69.95
2018-10-18T05:49:44.350Z,69.60
2018-10-18T05:50:16.947Z,77.25
2018-10-18T05:50:49.629Z,91.65
2018-10-18T05:51:22.179Z,78.33
2018-10-18T05:51:54.775Z,72.30
2018-10-18T05:52:27.335Z,71.42
2018-10-18T05:53:00.023Z,75.05
2018-10-18T05:53:32.617Z,78.28
2018-10-18T05:54:05.240Z,73.85
2018-10-18T05:54:37.810Z,75.85
2018-10-18T05:55:11.330Z,76.33
2018-10-18T05:55:43.966Z,73.47
2018-10-18T05:56:16.573Z,66.62
2018-10-18T05:56:49.184Z,71.77
2018-10-18T05:57:21.768Z,72.95
2018-10-18T05:57:54.351Z,69.12
2018-10-18T05:58:26.933Z,67.72
2018-10-18T05:58:59.526Z,67.30
2018-10-18T05:59:32.591Z,78.95
2018-10-18T06:00:08.002Z,71.85
2018-10-18T06:00:40.613Z,64.80
2018-10-18T06:01:13.300Z,71.22
2018-10-18T06:01:45.944Z,68.50
2018-10-18T06:02:18.526Z,82.82
2018-10-18T06:02:51.207Z,73.42
2018-10-18T06:03:23.820Z,74.58
2018-10-18T06:03:56.424Z,80.77
2018-10-18T06:04:29.147Z,75.42
2018-10-18T06:05:02.943Z,75.22
2018-10-18T06:05:35.602Z,72.22
2018-10-18T06:06:08.261Z,89.45
2018-10-18T06:06:40.976Z,69.97
2018-10-18T06:07:14.033Z,72.37
2018-10-18T06:07:47.284Z,72.15
2018-10-18T06:08:20.391Z,77.17
2018-10-18T06:08:53.010Z,84.32
2018-10-18T06:09:30.192Z,68.35
2018-10-18T06:10:03.655Z,72.15
2018-10-18T06:10:47.427Z,75.35
2018-10-18T06:11:27.566Z,80.83
2018-10-18T06:12:00.327Z,68.25
2018-10-18T06:12:32.956Z,82.00
2018-10-18T06:13:05.891Z,69.47
2018-10-18T06:13:38.499Z,65.60
2018-10-18T06:14:11.080Z,75.72
2018-10-18T06:14:43.664Z,66.72
2018-10-18T06:15:16.247Z,88.82
2018-10-18T06:15:48.918Z,84.83
2018-10-18T06:16:22.475Z,83.80
2018-10-18T06:16:55.082Z,85.28
2018-10-18T06:17:27.647Z,95.80
2018-10-18T06:18:00.264Z,94.85
2018-10-18T06:18:32.924Z,113.68
2018-10-18T06:19:05.616Z,93.30
2018-10-18T06:19:38.167Z,86.50
2018-10-18T06:20:12.036Z,93.60
2018-10-18T06:20:44.762Z,98.37
2018-10-18T06:21:17.411Z,82.65
2018-10-18T06:21:50.011Z,67.00
2018-10-18T06:22:22.623Z,84.83
2018-10-18T06:22:55.645Z,80.05
2018-10-18T06:23:30.088Z,79.65
2018-10-18T06:24:03.173Z,78.78
2018-10-18T06:24:36.772Z,120.60
2018-10-18T06:25:10.889Z,75.47
2018-10-18T06:25:43.396Z,86.10
2018-10-18T06:26:16.657Z,97.80
2018-10-18T06:26:49.412Z,94.85
2018-10-18T06:27:22.221Z,88.42
2018-10-18T06:27:54.835Z,95.25
2018-10-18T06:28:27.483Z,100.80
2018-10-18T06:29:00.738Z,78.05
2018-10-18T06:29:33.535Z,80.75
2018-10-18T06:30:08.519Z,77.20
2018-10-18T06:30:41.155Z,70.90
2018-10-18T06:31:13.864Z,66.60
2018-10-18T06:31:46.476Z,69.67
2018-10-18T06:32:19.101Z,69.37
2018-10-18T06:32:51.777Z,70.83
2018-10-18T06:33:24.401Z,80.62
2018-10-18T06:33:56.995Z,70.37
2018-10-18T06:34:29.997Z,78.67
2018-10-18T06:35:02.695Z,69.47
2018-10-18T06:35:35.335Z,94.52
2018-10-18T06:36:07.931Z,76.82
2018-10-18T06:36:40.525Z,81.82
2018-10-18T06:37:13.221Z,78.20
2018-10-18T06:37:45.751Z,71.67
2018-10-18T06:38:18.387Z,68.10
2018-10-18T06:38:51.210Z,74.45
2018-10-18T06:39:23.877Z,68.92
2018-10-18T06:39:56.475Z,61.05
2018-10-18T06:40:29.133Z,64.80
2018-10-18T06:41:01.826Z,71.12
2018-10-18T06:41:34.415Z,74.50
2018-10-18T06:42:07.011Z,70.72
2018-10-18T06:42:40.063Z,70.95
2018-10-18T06:43:12.737Z,80.50
2018-10-18T06:43:45.271Z,73.90
2018-10-18T06:44:17.871Z,63.80
2018-10-18T06:44:50.447Z,68.07
2018-10-18T06:45:23.063Z,57.93
2018-10-18T06:45:55.689Z,60.67
2018-10-18T06:46:28.414Z,59.85
2018-10-18T06:47:01.083Z,65.70
2018-10-18T06:47:33.779Z,82.88
2018-10-18T06:48:06.301Z,66.55
2018-10-18T06:48:39.316Z,68.47
2018-10-18T06:49:11.986Z,68.75
2018-10-18T06:49:44.540Z,68.97
2018-10-18T06:50:19.330Z,63.68
2018-10-18T06:50:51.958Z,72.70
2018-10-18T06:51:24.559Z,64.90
2018-10-18T06:51:57.229Z,81.92
2018-10-18T06:52:29.871Z,67.50
2018-10-18T06:53:02.479Z,64.40
2018-10-18T06:53:35.087Z,65.72
2018-10-18T06:54:07.730Z,65.80
2018-10-18T06:54:40.386Z,84.47
2018-10-18T06:55:13.081Z,69.07
2018-10-18T06:55:45.735Z,66.22
2018-10-18T06:56:18.335Z,68.60
2018-10-18T06:56:50.951Z,58.80
2018-10-18T06:57:23.566Z,60.33
2018-10-18T06:57:56.233Z,68.22
2018-10-18T06:58:28.890Z,66.82
2018-10-18T06:59:01.540Z,60.45
2018-10-18T06:59:34.147Z,68.92
2018-10-18T07:00:09.200Z,70.12
2018-10-18T07:00:41.817Z,65.70
2018-10-18T07:01:14.438Z,62.03
2018-10-18T07:01:47.074Z,109.63
2018-10-18T07:02:19.675Z,63.68
2018-10-18T07:02:52.407Z,65.83
2018-10-18T07:03:25.050Z,75.03
2018-10-18T07:03:57.642Z,58.42